Terminal Aerodrome Forecast
Issued by NWS

Home | Current Version | Previous Version | Text Only | Print | Product List | Glossary On
Versions: 1 2 3 4 5 6 7 8 9 10 11 12
805
FTUS46 KMTR 110520
TAFSJC
TAF
KSJC 110520Z 1106/1206 30005KT P6SM SCT060 BKN200
     FM111000 VRB03KT P6SM BKN200
     FM111900 29008KT P6SM FEW040 BKN200
     FM120400 VRB03KT P6SM BKN200=

USA.gov is the U.S. government's official web portal to all federal, state and local government web resources and services.